OINR  Ramsar  Airport

Iran

Add Bookmark
ICAO OINR
IATA RZR
Type Airport
Status Operational
Latitude
36° 54' 35" N
36.909901
Longitude
50° 40' 46" E
50.679600
Local (GMT +4.5 ) UTC
Aug 25, 2016 10:38 am Aug 25, 2016 06:08
Sunrise-Sunset Local UTC
Begin Civil Twilight 06:04 am 01:34
Sunrise 06:31 am 02:01
Sunset 07:46 pm 15:16
End Civil Twilight 08:13 pm 15:43
VFR
VFR
MVFR
MVFR
IFR
IFR
LIFR
LIFR
Unknown
Unavailable

Current Weather

METAR Observed VFR
OINR 250500Z 36004KT CAVOK 30/22 Q1012 Thu, Aug 25, 2016 @ 05:00 UTC
(1 Hour, 8 Minutes ago)
Visual Flight Rules
Wind Visibility Conditions
360° at 4 knots (7 kph) 10 km or more
  • No significant weather
Temperatures Readings Precipitation
Current Temp
30°C
86°F
Dewpoint
22°C
72°F
Heat Index
33°C
92°
Humidity 62%
Altimeter 29.88" Hg
Sea Level Pressure 1,012 mb
None Recorded

Additional weather within a 92.6km radius of OINR

Map ICAO Location
OINN 75km E/SE (111°)
VFR
VFR
MVFR
MVFR
IFR
IFR
LIFR
LIFR
Unknown
Unavailable
-
-

CheckWX.com is intended as a tool to help pilots better visualize weather data. It is not intended as a substitute for an official weather briefing obtained from a Flight Service Station. CheckWX.com does not meet the FAA requirements for an official pre-flight weather briefing. Therefore, it's important that pilots still call and obtain an official FSS pre-flight weather briefing.

© 2007-2016 CheckWX.com
06:08:39 UTC